createdAt,value
2018-04-13T00:00:27.867Z,0
2018-04-13T00:01:27.850Z,0
2018-04-13T00:02:27.336Z,0
2018-04-13T00:03:27.590Z,0
2018-04-13T00:04:27.890Z,0
2018-04-13T00:05:27.594Z,0
2018-04-13T00:06:27.830Z,0
2018-04-13T00:07:27.584Z,0
2018-04-13T00:08:28.093Z,0
2018-04-13T00:09:27.848Z,0
2018-04-13T00:10:28.099Z,0
2018-04-13T00:11:28.111Z,0
2018-04-13T00:12:32.411Z,0
2018-04-13T00:13:27.298Z,0
2018-04-13T00:14:27.617Z,0
2018-04-13T00:15:27.815Z,0
2018-04-13T00:16:28.086Z,0
2018-04-13T00:17:28.062Z,0
2018-04-13T00:18:27.815Z,0
2018-04-13T00:19:27.802Z,0
2018-04-13T00:20:27.567Z,0
2018-04-13T00:21:28.045Z,0
2018-04-13T00:22:27.861Z,0
2018-04-13T00:23:27.780Z,0
2018-04-13T00:24:28.043Z,0
2018-04-13T00:25:27.785Z,0
2018-04-13T00:26:28.025Z,0
2018-04-13T00:27:28.033Z,0
2018-04-13T00:28:27.518Z,0
2018-04-13T00:29:27.253Z,0
2018-04-13T00:30:27.503Z,0
2018-04-13T00:31:27.512Z,0
2018-04-13T00:32:27.586Z,0
2018-04-13T00:33:27.498Z,0
2018-04-13T00:34:27.773Z,0
2018-04-13T00:35:28.044Z,0
2018-04-13T00:36:27.484Z,0
2018-04-13T00:37:27.731Z,0
2018-04-13T00:38:27.987Z,0
2018-04-13T00:39:27.766Z,0
2018-04-13T00:40:27.736Z,0
2018-04-13T00:41:27.469Z,0
2018-04-13T00:42:27.975Z,0
2018-04-13T00:43:30.568Z,0
2018-04-13T00:44:27.738Z,0
2018-04-13T00:45:27.987Z,0
2018-04-13T00:46:27.960Z,0
2018-04-13T00:47:27.229Z,0
2018-04-13T00:48:27.255Z,0
2018-04-13T00:49:27.984Z,0
2018-04-13T00:50:27.975Z,0
2018-04-13T00:51:27.699Z,0
2018-04-13T00:52:27.716Z,0
2018-04-13T00:53:27.435Z,0
2018-04-13T00:54:27.454Z,0
2018-04-13T00:55:27.185Z,0
2018-04-13T00:56:27.435Z,0
2018-04-13T00:57:27.679Z,0
2018-04-13T00:58:28.965Z,0
2018-04-13T00:59:27.672Z,0
2018-04-13T01:00:27.421Z,0
2018-04-13T01:01:27.655Z,0
2018-04-13T01:02:27.655Z,0
2018-04-13T01:03:27.412Z,0
2018-04-13T01:04:27.412Z,0
2018-04-13T01:05:27.141Z,0
2018-04-13T01:06:27.644Z,0
2018-04-13T01:07:27.655Z,0
2018-04-13T01:08:27.911Z,0
2018-04-13T01:09:27.882Z,0
2018-04-13T01:10:27.371Z,0
2018-04-13T01:11:27.645Z,0
2018-04-13T01:12:27.869Z,0
2018-04-13T01:13:27.621Z,0
2018-04-13T01:14:27.657Z,0
2018-04-13T01:15:27.107Z,0
2018-04-13T01:16:27.100Z,0
2018-04-13T01:17:27.868Z,0
2018-04-13T01:18:27.606Z,0
2018-04-13T01:19:27.607Z,0
2018-04-13T01:20:27.598Z,0
2018-04-13T01:21:27.592Z,0
2018-04-13T01:22:27.585Z,0
2018-04-13T01:23:27.589Z,0
2018-04-13T01:24:27.082Z,0
2018-04-13T01:25:27.086Z,0
2018-04-13T01:26:27.579Z,0
2018-04-13T01:27:27.320Z,0
2018-04-13T01:28:27.551Z,0
2018-04-13T01:29:27.590Z,0
2018-04-13T01:30:27.310Z,0
2018-04-13T01:31:27.067Z,0
2018-04-13T01:32:27.546Z,0
2018-04-13T01:33:27.299Z,0
2018-04-13T01:34:27.541Z,0
2018-04-13T01:35:27.551Z,0
2018-04-13T01:36:27.795Z,0
2018-04-13T01:37:27.530Z,0
2018-04-13T01:38:29.141Z,0
2018-04-13T01:39:27.290Z,0
2018-04-13T01:40:27.518Z,0
2018-04-13T01:41:27.267Z,0
2018-04-13T01:42:27.524Z,0
2018-04-13T01:43:27.015Z,0
2018-04-13T01:44:29.462Z,0
2018-04-13T01:45:27.545Z,0
2018-04-13T01:46:27.003Z,0
2018-04-13T01:47:27.747Z,0
2018-04-13T01:48:27.238Z,0
2018-04-13T01:49:27.498Z,0
2018-04-13T01:50:27.231Z,0
2018-04-13T01:51:27.743Z,0
2018-04-13T01:52:26.977Z,0
2018-04-13T01:53:27.479Z,0
2018-04-13T01:54:27.720Z,0
2018-04-13T01:55:27.465Z,0
2018-04-13T01:56:27.460Z,0
2018-04-13T01:57:27.709Z,0
2018-04-13T01:58:26.959Z,0
2018-04-13T01:59:28.019Z,0
2018-04-13T02:00:27.455Z,0
2018-04-13T02:01:27.444Z,0
2018-04-13T02:02:27.693Z,0
2018-04-13T02:03:27.186Z,0
2018-04-13T02:04:27.464Z,0
2018-04-13T02:05:27.425Z,0
2018-04-13T02:06:27.440Z,0
2018-04-13T02:07:27.162Z,0
2018-04-13T02:08:27.166Z,0
2018-04-13T02:09:26.931Z,0
2018-04-13T02:10:27.412Z,0
2018-04-13T02:11:27.399Z,0
2018-04-13T02:12:27.655Z,0
2018-04-13T02:13:27.396Z,0
2018-04-13T02:14:27.388Z,0
2018-04-13T02:15:27.151Z,0
2018-04-13T02:16:27.388Z,0
2018-04-13T02:17:27.132Z,0
2018-04-13T02:18:27.388Z,0
2018-04-13T02:19:27.150Z,0
2018-04-13T02:20:27.614Z,0
2018-04-13T02:21:26.859Z,0
2018-04-13T02:22:27.106Z,0
2018-04-13T02:23:27.117Z,0
2018-04-13T02:24:27.114Z,0
2018-04-13T02:25:27.360Z,0
2018-04-13T02:26:27.298Z,0
2018-04-13T02:27:27.340Z,0
2018-04-13T02:28:27.349Z,0
2018-04-13T02:29:27.576Z,0
2018-04-13T02:30:27.328Z,0
2018-04-13T02:31:27.325Z,0
2018-04-13T02:32:26.826Z,0
2018-04-13T02:33:27.327Z,0
2018-04-13T02:34:27.931Z,0
2018-04-13T02:35:27.313Z,0
2018-04-13T02:36:27.318Z,0
2018-04-13T02:37:27.051Z,0
2018-04-13T02:38:26.800Z,0
2018-04-13T02:39:27.040Z,0
2018-04-13T02:40:26.791Z,0
2018-04-13T02:41:27.286Z,0
2018-04-13T02:42:27.297Z,0
2018-04-13T02:43:27.035Z,0
2018-04-13T02:44:27.091Z,0
2018-04-13T02:45:27.518Z,0
2018-04-13T02:46:27.283Z,0
2018-04-13T02:47:27.521Z,0
2018-04-13T02:48:27.012Z,0
2018-04-13T02:49:27.003Z,0
2018-04-13T02:50:26.992Z,0
2018-04-13T02:51:27.496Z,0
2018-04-13T02:52:27.233Z,0
2018-04-13T02:53:26.732Z,0
2018-04-13T02:54:27.477Z,0
2018-04-13T02:55:26.985Z,0
2018-04-13T02:56:27.220Z,0
2018-04-13T02:57:27.224Z,0
2018-04-13T02:58:27.211Z,0
2018-04-13T02:59:27.469Z,0
2018-04-13T03:00:26.952Z,0
2018-04-13T03:01:27.223Z,0
2018-04-13T03:02:26.701Z,0
2018-04-13T03:03:26.941Z,0
2018-04-13T03:04:27.193Z,0
2018-04-13T03:05:27.438Z,0
2018-04-13T03:06:26.945Z,0
2018-04-13T03:07:27.424Z,0
2018-04-13T03:08:27.193Z,0
2018-04-13T03:09:26.938Z,0
2018-04-13T03:10:27.438Z,0
2018-04-13T03:11:26.946Z,0
2018-04-13T03:12:27.160Z,0
2018-04-13T03:13:26.914Z,0
2018-04-13T03:14:27.416Z,0
2018-04-13T03:15:27.417Z,0
2018-04-13T03:16:27.157Z,0
2018-04-13T03:17:26.642Z,0
2018-04-13T03:18:27.378Z,0
2018-04-13T03:19:26.880Z,0
2018-04-13T03:20:26.873Z,0
2018-04-13T03:21:27.370Z,0
2018-04-13T03:22:26.868Z,0
2018-04-13T03:23:27.360Z,0
2018-04-13T03:24:26.380Z,0
2018-04-13T03:25:27.363Z,0
2018-04-13T03:26:27.150Z,0
2018-04-13T03:27:26.603Z,0
2018-04-13T03:28:26.864Z,0
2018-04-13T03:29:29.116Z,0
2018-04-13T03:37:38.410Z,0
2018-04-13T03:38:21.172Z,0
2018-04-13T03:39:20.671Z,0
2018-04-13T03:40:21.757Z,0
2018-04-13T03:41:20.922Z,0
2018-04-13T03:42:20.909Z,0
2018-04-13T03:43:20.912Z,0
2018-04-13T03:44:20.651Z,0
2018-04-13T03:45:21.197Z,0
2018-04-13T03:46:20.644Z,0
2018-04-13T03:47:20.892Z,0
2018-04-13T03:48:20.426Z,0
2018-04-13T03:49:20.406Z,0
2018-04-13T03:50:21.680Z,0
2018-04-13T03:51:20.912Z,0
2018-04-13T03:52:20.938Z,0
2018-04-13T03:53:20.865Z,0
2018-04-13T03:54:21.125Z,0
2018-04-13T03:55:21.979Z,0
2018-04-13T03:56:20.616Z,0
2018-04-13T03:57:20.342Z,0
2018-04-13T03:58:20.871Z,0
2018-04-13T03:59:21.112Z,0
2018-04-13T04:00:21.898Z,0
2018-04-13T04:01:21.080Z,0
2018-04-13T04:02:20.905Z,0
2018-04-13T04:03:21.272Z,0
2018-04-13T04:04:20.317Z,0
2018-04-13T04:05:22.312Z,0
2018-04-13T04:06:20.569Z,0
2018-04-13T04:07:20.555Z,0
2018-04-13T04:08:20.556Z,0
2018-04-13T04:09:20.795Z,0
2018-04-13T04:10:21.839Z,0
2018-04-13T04:11:20.541Z,0
2018-04-13T04:12:20.290Z,0
2018-04-13T04:13:20.279Z,0
2018-04-13T04:14:20.801Z,0
2018-04-13T04:15:22.314Z,0
2018-04-13T04:16:20.777Z,0
2018-04-13T04:17:20.267Z,0
2018-04-13T04:18:20.823Z,0
2018-04-13T04:19:20.508Z,0
2018-04-13T04:20:22.064Z,0
2018-04-13T04:21:20.012Z,0
2018-04-13T04:22:20.515Z,0
2018-04-13T04:23:20.752Z,0
2018-04-13T04:24:20.564Z,0
2018-04-13T04:25:21.471Z,0
2018-04-13T04:26:20.735Z,0
2018-04-13T04:27:20.722Z,0
2018-04-13T04:28:20.718Z,0
2018-04-13T04:29:20.469Z,0
2018-04-13T04:30:21.687Z,0
2018-04-13T04:31:20.219Z,0
2018-04-13T04:32:20.449Z,0
2018-04-13T04:33:25.549Z,0
2018-04-13T04:34:20.704Z,0
2018-04-13T04:35:21.705Z,0
2018-04-13T04:36:20.454Z,0
2018-04-13T04:37:20.438Z,0
2018-04-13T04:38:20.674Z,0
2018-04-13T04:39:20.675Z,0
2018-04-13T04:40:21.265Z,0
2018-04-13T04:41:20.422Z,0
2018-04-13T04:42:20.160Z,0
2018-04-13T04:43:20.157Z,0
2018-04-13T04:44:20.671Z,0
2018-04-13T04:45:21.451Z,0
2018-04-13T04:46:20.403Z,0
2018-04-13T04:47:20.664Z,0
2018-04-13T04:48:20.690Z,0
2018-04-13T04:49:20.135Z,0
2018-04-13T04:50:22.219Z,5
2018-04-13T04:51:20.128Z,5
2018-04-13T04:52:20.864Z,5
2018-04-13T04:53:20.618Z,5
2018-04-13T04:54:20.615Z,5
2018-04-13T04:55:21.108Z,5
2018-04-13T04:56:20.365Z,5
2018-04-13T04:57:20.612Z,5
2018-04-13T04:58:20.093Z,5
2018-04-13T04:59:20.338Z,5
2018-04-13T05:00:21.468Z,5
2018-04-13T05:01:20.618Z,5
2018-04-13T05:02:20.609Z,5
2018-04-13T05:03:20.854Z,10
2018-04-13T05:04:21.009Z,10
2018-04-13T05:05:22.341Z,10
2018-04-13T05:06:19.808Z,10
2018-04-13T05:07:20.609Z,10
2018-04-13T05:08:20.313Z,10
2018-04-13T05:09:20.573Z,10
2018-04-13T05:10:20.860Z,10
2018-04-13T05:11:20.291Z,10
2018-04-13T05:12:20.066Z,10
2018-04-13T05:13:20.815Z,10
2018-04-13T05:14:20.536Z,15
2018-04-13T05:15:21.383Z,15
2018-04-13T05:16:20.790Z,15
2018-04-13T05:17:19.781Z,15
2018-04-13T05:18:20.531Z,15
2018-04-13T05:19:20.580Z,15
2018-04-13T05:20:22.095Z,15
2018-04-13T05:21:20.746Z,15
2018-04-13T05:22:20.500Z,15
2018-04-13T05:23:20.241Z,15
2018-04-13T05:24:20.482Z,20
2018-04-13T05:25:21.612Z,20
2018-04-13T05:26:20.280Z,20
2018-04-13T05:27:20.479Z,20
2018-04-13T05:28:20.242Z,20
2018-04-13T05:29:20.340Z,20
2018-04-13T05:30:21.385Z,20
2018-04-13T05:31:19.980Z,20
2018-04-13T05:32:19.959Z,25
2018-04-13T05:33:20.738Z,25
2018-04-13T05:34:24.010Z,25
2018-04-13T05:35:22.177Z,25
2018-04-13T05:36:20.207Z,25
2018-04-13T05:37:20.691Z,25
2018-04-13T05:38:20.188Z,25
2018-04-13T05:39:20.186Z,30
2018-04-13T05:40:20.993Z,30
2018-04-13T05:41:20.181Z,30
2018-04-13T05:42:20.183Z,30
2018-04-13T05:43:20.435Z,30
2018-04-13T05:44:20.411Z,30
2018-04-13T05:45:21.469Z,30
2018-04-13T05:46:20.408Z,35
2018-04-13T05:47:20.173Z,35
2018-04-13T05:48:20.671Z,35
2018-04-13T05:49:20.469Z,35
2018-04-13T05:50:20.988Z,35
2018-04-13T05:51:19.905Z,35
2018-04-13T05:52:20.140Z,40
2018-04-13T05:53:20.132Z,40
2018-04-13T05:54:20.635Z,40
2018-04-13T05:55:21.243Z,40
2018-04-13T05:56:20.129Z,40
2018-04-13T05:57:19.876Z,40
2018-04-13T05:58:20.371Z,45
2018-04-13T05:59:20.376Z,45
2018-04-13T06:00:21.205Z,45
2018-04-13T06:01:20.108Z,45
2018-04-13T06:02:20.617Z,45
2018-04-13T06:03:20.374Z,50
2018-04-13T06:04:21.449Z,50
2018-04-13T06:05:21.280Z,50
2018-04-13T06:06:20.353Z,55
2018-04-13T06:07:20.335Z,55
2018-04-13T06:08:20.344Z,60
2018-04-13T06:09:20.083Z,60
2018-04-13T06:10:21.355Z,60
2018-04-13T06:11:20.324Z,65
2018-04-13T06:12:19.592Z,65
2018-04-13T06:13:20.629Z,70
2018-04-13T06:23:06.464Z,90
2018-04-13T06:24:06.207Z,95
2018-04-13T06:25:06.694Z,95
2018-04-13T06:26:06.450Z,95
2018-04-13T06:27:06.190Z,100
2018-04-13T06:28:06.689Z,100
2018-04-13T06:29:06.440Z,100
2018-04-13T06:30:06.442Z,100
2018-04-13T06:31:06.675Z,105
2018-04-13T06:32:06.406Z,110
2018-04-13T06:33:06.657Z,105
2018-04-13T06:34:06.412Z,105
2018-04-13T06:35:06.453Z,105
2018-04-13T06:36:06.416Z,105
2018-04-13T06:37:06.408Z,105
2018-04-13T06:38:06.699Z,110
2018-04-13T06:39:06.385Z,110
2018-04-13T06:40:06.132Z,110
2018-04-13T06:41:06.140Z,110
2018-04-13T06:42:06.647Z,110
2018-04-13T06:43:06.657Z,110
2018-04-13T06:44:06.619Z,115
2018-04-13T06:45:06.625Z,115
2018-04-13T06:46:06.628Z,115
2018-04-13T06:47:06.365Z,115
2018-04-13T06:48:06.418Z,120
2018-04-13T06:49:06.379Z,120
2018-04-13T06:50:06.617Z,120
2018-04-13T06:51:06.606Z,125
2018-04-13T06:52:05.854Z,125
2018-04-13T06:53:07.302Z,130
2018-04-13T06:54:06.107Z,130
2018-04-13T06:55:05.857Z,130
2018-04-13T06:56:06.602Z,130
2018-04-13T06:57:06.605Z,130
2018-04-13T06:58:06.597Z,130
2018-04-13T06:59:06.374Z,130
2018-04-13T07:00:06.388Z,130
2018-04-13T07:01:06.337Z,140
2018-04-13T07:02:05.838Z,135
2018-04-13T07:03:06.578Z,135
2018-04-13T07:04:06.106Z,130
2018-04-13T07:05:06.346Z,130
2018-04-13T07:06:06.337Z,130
2018-04-13T07:07:06.580Z,130
2018-04-13T07:08:08.482Z,130
2018-04-13T07:09:06.083Z,125
2018-04-13T07:10:06.578Z,125
2018-04-13T07:11:06.065Z,125
2018-04-13T07:12:06.574Z,125
2018-04-13T07:13:06.064Z,125
2018-04-13T07:14:06.328Z,120
2018-04-13T07:15:06.579Z,120
2018-04-13T07:16:06.314Z,120
2018-04-13T07:17:06.571Z,125
2018-04-13T07:18:06.553Z,120
2018-04-13T07:19:06.552Z,120
2018-04-13T07:20:06.062Z,125
2018-04-13T07:21:06.564Z,125
2018-04-13T07:22:06.335Z,125
2018-04-13T07:23:06.317Z,125
2018-04-13T07:24:07.441Z,130
2018-04-13T07:25:06.777Z,130
2018-04-13T07:26:06.312Z,130
2018-04-13T07:27:06.316Z,130
2018-04-13T07:28:06.311Z,130
2018-04-13T07:29:06.050Z,130
2018-04-13T07:30:06.569Z,130
2018-04-13T07:31:06.040Z,130
2018-04-13T07:32:06.137Z,130
2018-04-13T07:33:06.283Z,130
2018-04-13T07:34:06.843Z,130
2018-04-13T07:35:06.545Z,130
2018-04-13T07:36:07.272Z,130
2018-04-13T07:37:06.033Z,130
2018-04-13T07:38:06.860Z,130
2018-04-13T07:39:10.062Z,130
2018-04-13T07:40:07.267Z,135
2018-04-13T07:41:06.530Z,130
2018-04-13T07:42:06.279Z,130
2018-04-13T07:43:06.541Z,130
2018-04-13T07:44:06.545Z,130
2018-04-13T07:45:06.724Z,135
2018-04-13T07:46:06.277Z,135
2018-04-13T07:47:06.269Z,140
2018-04-13T07:48:06.537Z,140
2018-04-13T07:49:06.539Z,140
2018-04-13T07:50:07.137Z,140
2018-04-13T07:51:06.682Z,145
2018-04-13T07:52:06.278Z,145
2018-04-13T07:53:06.527Z,145
2018-04-13T07:54:07.673Z,145
2018-04-13T07:55:06.272Z,140
2018-04-13T07:56:06.519Z,140
2018-04-13T07:57:06.021Z,140
2018-04-13T07:58:06.562Z,140
2018-04-13T07:59:07.183Z,140
2018-04-13T08:00:06.263Z,140
2018-04-13T08:01:07.104Z,140
2018-04-13T08:02:07.044Z,135
2018-04-13T08:03:07.335Z,135
2018-04-13T08:04:06.260Z,135
2018-04-13T08:05:06.505Z,135
2018-04-13T08:06:06.257Z,135
2018-04-13T08:07:06.642Z,135
2018-04-13T08:08:06.022Z,135
2018-04-13T08:09:08.846Z,130
2018-04-13T08:10:06.253Z,135
2018-04-13T08:11:06.397Z,135
2018-04-13T08:12:06.258Z,130
2018-04-13T08:13:06.519Z,130
2018-04-13T08:14:06.490Z,135
2018-04-13T08:15:07.524Z,135
2018-04-13T08:16:05.997Z,140
2018-04-13T08:17:06.248Z,145
2018-04-13T08:18:06.349Z,150
2018-04-13T08:19:05.992Z,155
2018-04-13T08:20:06.293Z,160
2018-04-13T08:21:06.244Z,165
2018-04-13T08:22:06.003Z,170
2018-04-13T08:23:05.739Z,170
2018-04-13T08:24:06.233Z,170
2018-04-13T08:25:07.748Z,175
2018-04-13T08:26:06.485Z,175
2018-04-13T08:27:06.250Z,175
2018-04-13T08:28:06.498Z,175
2018-04-13T08:29:06.019Z,175
2018-04-13T08:30:06.603Z,175
2018-04-13T08:31:05.990Z,180
2018-04-13T08:32:06.258Z,185
2018-04-13T08:33:06.507Z,185
2018-04-13T08:34:06.547Z,190
2018-04-13T08:35:06.001Z,190
2018-04-13T08:36:06.489Z,190
2018-04-13T08:37:06.241Z,185
2018-04-13T08:38:06.483Z,185
2018-04-13T08:39:05.995Z,180
2018-04-13T08:40:06.437Z,180
2018-04-13T08:41:06.238Z,175
2018-04-13T08:42:05.741Z,170
2018-04-13T08:43:05.798Z,165
2018-04-13T08:44:06.513Z,160
2018-04-13T08:45:06.488Z,155
2018-04-13T08:46:06.568Z,150
2018-04-13T08:47:06.608Z,150
2018-04-13T08:48:06.241Z,155
2018-04-13T08:49:06.861Z,150
2018-04-13T08:50:05.998Z,145
2018-04-13T08:51:06.247Z,145
2018-04-13T08:52:06.249Z,140
2018-04-13T08:53:06.490Z,140
2018-04-13T08:54:06.706Z,140
2018-04-13T08:55:06.083Z,135
2018-04-13T08:56:06.297Z,135
2018-04-13T08:57:05.746Z,130
2018-04-13T08:58:05.785Z,125
2018-04-13T08:59:05.999Z,120
2018-04-13T09:00:06.586Z,115
2018-04-13T09:01:06.439Z,115
2018-04-13T09:02:06.249Z,110
2018-04-13T09:03:06.004Z,110
2018-04-13T09:04:06.036Z,105
2018-04-13T09:05:06.653Z,105
2018-04-13T09:06:06.243Z,105
2018-04-13T09:07:06.484Z,105
2018-04-13T09:08:05.745Z,100
2018-04-13T09:09:06.495Z,95
2018-04-13T09:10:08.063Z,95
2018-04-13T09:11:06.256Z,90
2018-04-13T09:12:06.268Z,80
2018-04-13T09:13:06.731Z,80
2018-04-13T09:14:06.008Z,80
2018-04-13T09:15:06.330Z,80
2018-04-13T09:16:06.248Z,80
2018-04-13T09:17:06.267Z,80
2018-04-13T09:18:06.556Z,80
2018-04-13T09:19:06.502Z,75
2018-04-13T09:20:06.257Z,75
2018-04-13T09:21:06.261Z,70
2018-04-13T09:22:05.991Z,70
2018-04-13T09:23:06.240Z,70
2018-04-13T09:24:06.264Z,70
2018-04-13T09:25:06.308Z,70
2018-04-13T09:26:06.511Z,70
2018-04-13T09:27:06.397Z,70
2018-04-13T09:28:06.374Z,70
2018-04-13T09:29:06.286Z,70
2018-04-13T09:30:06.241Z,65
2018-04-13T09:31:06.244Z,65
2018-04-13T09:32:06.497Z,70
2018-04-13T09:33:06.252Z,65
2018-04-13T09:34:06.252Z,65
2018-04-13T09:35:06.002Z,65
2018-04-13T09:36:06.569Z,70
2018-04-13T09:37:05.999Z,75
2018-04-13T09:38:06.507Z,80
2018-04-13T09:39:06.258Z,80
2018-04-13T09:40:09.748Z,80
2018-04-13T09:41:06.244Z,90
2018-04-13T09:42:06.000Z,95
2018-04-13T09:43:06.518Z,100
2018-04-13T09:44:06.520Z,110
2018-04-13T09:45:05.757Z,115
2018-04-13T09:46:06.580Z,115
2018-04-13T09:47:06.011Z,115
2018-04-13T09:48:06.001Z,115
2018-04-13T09:49:06.248Z,125
2018-04-13T09:50:06.251Z,120
2018-04-13T09:51:06.255Z,120
2018-04-13T09:52:06.502Z,125
2018-04-13T09:53:06.518Z,120
2018-04-13T09:54:06.236Z,120
2018-04-13T09:55:06.249Z,120
2018-04-13T09:56:06.504Z,120
2018-04-13T09:57:06.238Z,120
2018-04-13T09:58:06.246Z,120
2018-04-13T09:59:05.996Z,125
2018-04-13T10:00:06.504Z,125
2018-04-13T10:01:06.248Z,120
2018-04-13T10:02:06.248Z,115
2018-04-13T10:03:06.244Z,110
2018-04-13T10:04:05.981Z,105
2018-04-13T10:05:06.233Z,105
2018-04-13T10:06:06.251Z,105
2018-04-13T10:07:06.481Z,105
2018-04-13T10:08:06.310Z,105
2018-04-13T10:09:06.790Z,110
2018-04-13T10:10:06.505Z,110
2018-04-13T10:11:07.620Z,110
2018-04-13T10:12:06.508Z,110
2018-04-13T10:13:06.478Z,110
2018-04-13T10:14:06.511Z,105
2018-04-13T10:15:06.471Z,100
2018-04-13T10:16:06.467Z,95
2018-04-13T10:17:06.489Z,95
2018-04-13T10:18:06.477Z,90
2018-04-13T10:19:05.737Z,90
2018-04-13T10:20:06.479Z,95
2018-04-13T10:21:06.493Z,95
2018-04-13T10:22:06.476Z,100
2018-04-13T10:52:45.372Z,125
2018-04-13T10:53:44.793Z,125
2018-04-13T10:54:44.535Z,120
2018-04-13T10:55:44.780Z,125
2018-04-13T10:56:45.000Z,125
2018-04-13T10:57:45.005Z,115
2018-04-13T10:58:45.012Z,105
2018-04-13T10:59:44.994Z,85
2018-04-13T11:00:44.994Z,75
2018-04-13T11:01:44.740Z,85
2018-04-13T11:02:44.757Z,100
2018-04-13T11:03:45.087Z,90
2018-04-13T11:04:44.471Z,80
2018-04-13T11:05:44.979Z,75
2018-04-13T11:06:44.468Z,70
2018-04-13T11:07:44.768Z,70
2018-04-13T11:08:44.467Z,75
2018-04-13T11:09:44.470Z,85
2018-04-13T11:10:45.020Z,90
2018-04-13T11:11:44.465Z,90
2018-04-13T11:12:44.481Z,95
2018-04-13T11:13:44.746Z,95
2018-04-13T11:14:44.702Z,90
2018-04-13T11:15:44.953Z,90
2018-04-13T11:16:45.006Z,85
2018-04-13T11:17:44.689Z,85
2018-04-13T11:18:44.443Z,80
2018-04-13T11:19:44.956Z,75
2018-04-13T11:20:44.685Z,75
2018-04-13T11:21:44.941Z,75
2018-04-13T11:22:46.550Z,75
2018-04-13T11:23:44.189Z,75
2018-04-13T11:24:44.930Z,75
2018-04-13T11:25:44.692Z,75
2018-04-13T11:26:44.441Z,70
2018-04-13T11:27:44.672Z,70
2018-04-13T11:28:44.435Z,70
2018-04-13T11:29:44.681Z,65
2018-04-13T11:30:44.425Z,65
2018-04-13T11:31:44.669Z,65
2018-04-13T11:32:44.918Z,65
2018-04-13T11:33:44.489Z,60
2018-04-13T11:34:44.910Z,60
2018-04-13T11:35:44.960Z,60
2018-04-13T11:36:44.916Z,60
2018-04-13T11:37:44.754Z,60
2018-04-13T11:38:44.452Z,60
2018-04-13T11:39:44.716Z,60
2018-04-13T11:40:44.714Z,60
2018-04-13T11:41:44.462Z,60
2018-04-13T11:42:44.657Z,60
2018-04-13T11:43:44.391Z,60
2018-04-13T11:44:44.642Z,60
2018-04-13T11:45:44.651Z,65
2018-04-13T11:46:44.653Z,65
2018-04-13T11:47:44.418Z,65
2018-04-13T11:48:44.885Z,70
2018-04-13T11:49:44.890Z,70
2018-04-13T11:50:44.909Z,65
2018-04-13T11:51:44.652Z,65
2018-04-13T11:52:46.035Z,70
2018-04-13T11:53:44.621Z,70
2018-04-13T11:54:44.881Z,65
2018-04-13T11:55:44.620Z,65
2018-04-13T11:56:44.617Z,65
2018-04-13T11:57:44.376Z,65
2018-04-13T11:58:44.882Z,65
2018-04-13T11:59:44.372Z,65
2018-04-13T12:00:44.866Z,65
2018-04-13T12:01:44.862Z,60
2018-04-13T12:02:44.378Z,60
2018-04-13T12:03:44.872Z,55
2018-04-13T12:04:44.865Z,55
2018-04-13T12:05:44.612Z,55
2018-04-13T12:06:44.605Z,50
2018-04-13T12:07:44.628Z,50
2018-04-13T12:08:44.631Z,45
2018-04-13T12:09:44.859Z,45
2018-04-13T12:10:44.859Z,45
2018-04-13T12:11:44.614Z,45
2018-04-13T12:12:45.699Z,50
2018-04-13T12:13:44.104Z,50
2018-04-13T12:14:44.583Z,45
2018-04-13T12:15:44.376Z,45
2018-04-13T12:16:44.077Z,45
2018-04-13T12:17:44.331Z,45
2018-04-13T12:18:44.575Z,50
2018-04-13T12:19:44.573Z,55
2018-04-13T12:20:44.574Z,55
2018-04-13T12:21:44.579Z,50
2018-04-13T12:22:44.094Z,50
2018-04-13T12:23:44.575Z,50
2018-04-13T12:24:44.576Z,50
2018-04-13T12:25:44.813Z,50
2018-04-13T12:26:44.648Z,50
2018-04-13T12:27:44.563Z,50
2018-04-13T12:28:44.549Z,50
2018-04-13T12:29:44.548Z,50
2018-04-13T12:30:44.298Z,50
2018-04-13T12:31:44.808Z,50
2018-04-13T12:32:44.309Z,55
2018-04-13T12:33:44.810Z,55
2018-04-13T12:34:44.808Z,60
2018-04-13T12:35:44.050Z,65
2018-04-13T12:36:44.288Z,70
2018-04-13T12:37:44.589Z,65
2018-04-13T12:38:44.847Z,65
2018-04-13T12:39:44.557Z,65
2018-04-13T12:40:44.801Z,65
2018-04-13T12:41:44.869Z,70
2018-04-13T12:42:44.272Z,75
2018-04-13T12:43:44.526Z,75
2018-04-13T12:44:44.524Z,75
2018-04-13T12:45:44.292Z,80
2018-04-13T12:46:44.523Z,90
2018-04-13T12:47:44.279Z,90
2018-04-13T12:48:44.354Z,95
2018-04-13T12:49:44.518Z,95
2018-04-13T12:50:44.501Z,105
2018-04-13T12:51:44.771Z,100
2018-04-13T12:52:44.978Z,100
2018-04-13T12:53:44.958Z,100
2018-04-13T12:54:46.047Z,95
2018-04-13T12:55:44.645Z,90
2018-04-13T12:56:45.004Z,95
2018-04-13T12:57:43.999Z,95
2018-04-13T12:58:44.231Z,90
2018-04-13T12:59:44.483Z,90
2018-04-13T13:00:44.002Z,85
2018-04-13T13:01:44.744Z,80
2018-04-13T13:02:44.483Z,75
2018-04-13T13:03:44.749Z,70
2018-04-13T13:04:43.981Z,65
2018-04-13T13:05:44.236Z,65
2018-04-13T13:06:44.469Z,65
2018-04-13T13:07:44.466Z,65
2018-04-13T13:08:48.313Z,60
2018-04-13T13:09:44.717Z,55
2018-04-13T13:10:44.459Z,55
2018-04-13T13:11:44.713Z,60
2018-04-13T13:12:44.758Z,65
2018-04-13T13:13:44.217Z,70
2018-04-13T13:14:44.207Z,70
2018-04-13T13:15:44.626Z,70
2018-04-13T13:16:44.193Z,70
2018-04-13T13:17:44.448Z,65
2018-04-13T13:18:44.434Z,65
2018-04-13T13:19:44.443Z,65
2018-04-13T13:20:44.185Z,60
2018-04-13T13:21:44.203Z,65
2018-04-13T13:22:44.622Z,60
2018-04-13T13:23:44.187Z,60
2018-04-13T13:24:44.187Z,60
2018-04-13T13:25:44.686Z,70
2018-04-13T13:26:44.430Z,70
2018-04-13T13:27:44.433Z,70
2018-04-13T13:28:44.422Z,60
2018-04-13T13:29:44.213Z,55
2018-04-13T13:30:44.479Z,50
2018-04-13T13:31:44.773Z,55
2018-04-13T13:32:44.445Z,60
2018-04-13T13:33:44.501Z,60
2018-04-13T13:34:44.421Z,60
2018-04-13T13:35:43.913Z,55
2018-04-13T13:36:44.414Z,50
2018-04-13T13:37:44.674Z,45
2018-04-13T13:38:46.260Z,45
2018-04-13T13:39:44.155Z,40
2018-04-13T13:40:44.396Z,35
2018-04-13T13:41:44.399Z,30
2018-04-13T13:42:44.417Z,35
2018-04-13T13:43:44.643Z,35
2018-04-13T13:44:44.383Z,30
2018-04-13T13:45:43.894Z,30
2018-04-13T13:46:44.634Z,30
2018-04-13T13:47:44.478Z,30
2018-04-13T13:48:44.190Z,30
2018-04-13T13:49:44.422Z,30
2018-04-13T13:50:44.679Z,25
2018-04-13T13:51:44.415Z,25
2018-04-13T13:52:44.372Z,25
2018-04-13T13:53:44.624Z,25
2018-04-13T13:54:44.402Z,25
2018-04-13T13:55:44.363Z,25
2018-04-13T13:56:44.109Z,25
2018-04-13T13:57:44.614Z,25
2018-04-13T13:58:44.627Z,30
2018-04-13T13:59:44.613Z,30
2018-04-13T14:00:44.375Z,35
2018-04-13T14:01:44.113Z,40
2018-04-13T14:02:44.610Z,40
2018-04-13T14:03:43.878Z,40
2018-04-13T14:04:44.629Z,35
2018-04-13T14:05:44.592Z,35
2018-04-13T14:06:44.585Z,40
2018-04-13T14:07:44.100Z,40
2018-04-13T14:08:46.248Z,45
2018-04-13T14:09:44.337Z,50
2018-04-13T14:10:44.343Z,55
2018-04-13T14:11:44.327Z,60
2018-04-13T14:12:44.342Z,60
2018-04-13T14:13:44.580Z,60
2018-04-13T14:14:44.497Z,60
2018-04-13T14:15:44.070Z,60
2018-04-13T14:16:44.314Z,60
2018-04-13T14:17:44.121Z,55
2018-04-13T14:18:44.099Z,50
2018-04-13T14:19:44.056Z,50
2018-04-13T14:20:44.378Z,50
2018-04-13T14:21:44.296Z,40
2018-04-13T14:22:44.150Z,40
2018-04-13T14:23:44.574Z,40
2018-04-13T14:24:44.856Z,40
2018-04-13T14:25:44.547Z,40
2018-04-13T14:26:44.207Z,45
2018-04-13T14:27:44.314Z,45
2018-04-13T14:28:44.302Z,50
2018-04-13T14:29:44.292Z,55
2018-04-13T14:30:44.043Z,55
2018-04-13T14:31:44.293Z,55
2018-04-13T14:32:44.277Z,55
2018-04-13T14:33:44.543Z,55
2018-04-13T14:34:43.788Z,60
2018-04-13T14:35:44.019Z,60
2018-04-13T14:36:44.030Z,60
2018-04-13T14:37:44.013Z,60
2018-04-13T14:38:44.322Z,60
2018-04-13T14:39:44.518Z,60
2018-04-13T14:40:44.508Z,60
2018-04-13T14:41:44.258Z,60
2018-04-13T14:42:44.511Z,60
2018-04-13T14:43:44.016Z,60
2018-04-13T14:44:44.087Z,55
2018-04-13T14:45:44.494Z,50
2018-04-13T14:46:44.253Z,45
2018-04-13T14:47:43.992Z,45
2018-04-13T14:48:44.488Z,45
2018-04-13T14:49:44.232Z,40
2018-04-13T14:50:44.493Z,40
2018-04-13T14:51:44.232Z,40
2018-04-13T14:52:44.241Z,40
2018-04-13T14:53:44.232Z,40
2018-04-13T14:54:44.473Z,40
2018-04-13T14:55:43.974Z,40
2018-04-13T14:56:43.965Z,45
2018-04-13T14:57:44.214Z,50
2018-04-13T14:58:44.469Z,50
2018-04-13T14:59:44.476Z,55
2018-04-13T15:00:44.457Z,55
2018-04-13T15:01:44.470Z,55
2018-04-13T15:02:43.954Z,60
2018-04-13T15:03:44.208Z,65